sensor_id;sensor_type;location;lat;lon;timestamp;P1;durP1;ratioP1;P2;durP2;ratioP2
65879;SDS011;52661;51.364;6.054;2024-01-15T00:02:02;8.98;;;4.50;;
65879;SDS011;52661;51.364;6.054;2024-01-15T00:04:28;5.28;;;2.53;;
65879;SDS011;52661;51.364;6.054;2024-01-15T00:06:53;4.05;;;2.28;;
65879;SDS011;52661;51.364;6.054;2024-01-15T00:09:19;13.02;;;5.68;;
65879;SDS011;52661;51.364;6.054;2024-01-15T00:11:44;8.45;;;4.03;;
65879;SDS011;52661;51.364;6.054;2024-01-15T00:14:11;10.02;;;4.20;;
65879;SDS011;52661;51.364;6.054;2024-01-15T00:16:37;8.30;;;4.43;;
65879;SDS011;52661;51.364;6.054;2024-01-15T00:19:02;8.27;;;4.23;;
65879;SDS011;52661;51.364;6.054;2024-01-15T00:21:27;3.23;;;1.97;;
65879;SDS011;52661;51.364;6.054;2024-01-15T00:23:53;2.72;;;1.63;;
65879;SDS011;52661;51.364;6.054;2024-01-15T00:26:18;5.22;;;2.53;;
65879;SDS011;52661;51.364;6.054;2024-01-15T00:28:44;3.35;;;2.67;;
65879;SDS011;52661;51.364;6.054;2024-01-15T00:31:09;9.37;;;3.73;;
65879;SDS011;52661;51.364;6.054;2024-01-15T00:33:34;7.80;;;4.67;;
65879;SDS011;52661;51.364;6.054;2024-01-15T00:36:00;6.75;;;2.50;;
65879;SDS011;52661;51.364;6.054;2024-01-15T00:38:25;13.00;;;4.05;;
65879;SDS011;52661;51.364;6.054;2024-01-15T00:40:51;5.20;;;1.77;;
65879;SDS011;52661;51.364;6.054;2024-01-15T00:43:16;6.80;;;4.40;;
65879;SDS011;52661;51.364;6.054;2024-01-15T00:45:44;7.60;;;4.32;;
65879;SDS011;52661;51.364;6.054;2024-01-15T00:48:09;2.47;;;1.05;;
65879;SDS011;52661;51.364;6.054;2024-01-15T00:50:34;7.90;;;3.77;;
65879;SDS011;52661;51.364;6.054;2024-01-15T00:53:00;5.18;;;2.90;;
65879;SDS011;52661;51.364;6.054;2024-01-15T00:55:25;8.48;;;4.55;;
65879;SDS011;52661;51.364;6.054;2024-01-15T00:57:50;4.43;;;2.70;;
65879;SDS011;52661;51.364;6.054;2024-01-15T01:00:16;8.83;;;2.43;;
65879;SDS011;52661;51.364;6.054;2024-01-15T01:02:41;3.60;;;2.28;;
65879;SDS011;52661;51.364;6.054;2024-01-15T01:05:07;7.10;;;2.97;;
65879;SDS011;52661;51.364;6.054;2024-01-15T01:07:32;1.35;;;1.17;;
65879;SDS011;52661;51.364;6.054;2024-01-15T01:09:57;3.03;;;1.33;;
65879;SDS011;52661;51.364;6.054;2024-01-15T01:12:23;5.97;;;3.22;;
65879;SDS011;52661;51.364;6.054;2024-01-15T01:14:48;11.77;;;4.47;;
65879;SDS011;52661;51.364;6.054;2024-01-15T01:17:14;7.32;;;1.98;;
65879;SDS011;52661;51.364;6.054;2024-01-15T01:19:39;2.50;;;1.80;;
65879;SDS011;52661;51.364;6.054;2024-01-15T01:22:04;2.67;;;0.57;;
65879;SDS011;52661;51.364;6.054;2024-01-15T01:24:30;1.98;;;1.23;;
65879;SDS011;52661;51.364;6.054;2024-01-15T01:26:55;4.37;;;2.40;;
65879;SDS011;52661;51.364;6.054;2024-01-15T01:29:20;2.63;;;2.30;;
65879;SDS011;52661;51.364;6.054;2024-01-15T01:31:46;3.25;;;1.90;;
65879;SDS011;52661;51.364;6.054;2024-01-15T01:34:15;2.17;;;0.73;;
65879;SDS011;52661;51.364;6.054;2024-01-15T01:36:41;5.47;;;2.90;;
65879;SDS011;52661;51.364;6.054;2024-01-15T01:39:07;3.95;;;1.42;;
65879;SDS011;52661;51.364;6.054;2024-01-15T01:41:33;1.67;;;1.10;;
65879;SDS011;52661;51.364;6.054;2024-01-15T01:43:58;1.73;;;1.15;;
65879;SDS011;52661;51.364;6.054;2024-01-15T01:46:23;4.33;;;2.03;;
65879;SDS011;52661;51.364;6.054;2024-01-15T01:48:51;2.05;;;1.10;;
65879;SDS011;52661;51.364;6.054;2024-01-15T01:51:17;1.48;;;0.95;;
65879;SDS011;52661;51.364;6.054;2024-01-15T01:53:43;1.77;;;0.82;;
65879;SDS011;52661;51.364;6.054;2024-01-15T01:56:09;2.25;;;0.60;;
65879;SDS011;52661;51.364;6.054;2024-01-15T01:58:34;1.70;;;0.65;;
65879;SDS011;52661;51.364;6.054;2024-01-15T02:01:00;2.63;;;1.08;;
65879;SDS011;52661;51.364;6.054;2024-01-15T02:03:26;1.38;;;0.90;;
65879;SDS011;52661;51.364;6.054;2024-01-15T02:05:52;3.80;;;1.20;;
65879;SDS011;52661;51.364;6.054;2024-01-15T02:08:18;3.47;;;1.23;;
65879;SDS011;52661;51.364;6.054;2024-01-15T02:10:44;3.83;;;1.75;;
65879;SDS011;52661;51.364;6.054;2024-01-15T02:13:09;2.37;;;1.23;;
65879;SDS011;52661;51.364;6.054;2024-01-15T02:15:35;2.08;;;1.67;;
65879;SDS011;52661;51.364;6.054;2024-01-15T02:18:01;3.63;;;2.20;;
65879;SDS011;52661;51.364;6.054;2024-01-15T02:20:27;3.10;;;1.88;;
65879;SDS011;52661;51.364;6.054;2024-01-15T02:22:53;6.57;;;2.67;;
65879;SDS011;52661;51.364;6.054;2024-01-15T02:25:18;5.00;;;1.77;;
65879;SDS011;52661;51.364;6.054;2024-01-15T02:27:44;1.75;;;1.10;;
65879;SDS011;52661;51.364;6.054;2024-01-15T02:30:11;6.07;;;1.88;;
65879;SDS011;52661;51.364;6.054;2024-01-15T02:32:37;2.30;;;1.55;;
65879;SDS011;52661;51.364;6.054;2024-01-15T02:35:03;2.53;;;0.93;;
65879;SDS011;52661;51.364;6.054;2024-01-15T02:37:29;3.25;;;3.00;;
65879;SDS011;52661;51.364;6.054;2024-01-15T02:39:54;2.27;;;1.20;;
65879;SDS011;52661;51.364;6.054;2024-01-15T02:42:19;2.73;;;1.70;;
65879;SDS011;52661;51.364;6.054;2024-01-15T02:44:45;5.17;;;2.40;;
65879;SDS011;52661;51.364;6.054;2024-01-15T02:47:10;4.30;;;2.50;;
65879;SDS011;52661;51.364;6.054;2024-01-15T02:49:35;5.70;;;3.27;;
65879;SDS011;52661;51.364;6.054;2024-01-15T02:52:01;9.43;;;2.07;;
65879;SDS011;52661;51.364;6.054;2024-01-15T02:54:26;3.53;;;1.65;;
65879;SDS011;52661;51.364;6.054;2024-01-15T02:56:51;3.37;;;1.83;;
65879;SDS011;52661;51.364;6.054;2024-01-15T02:59:17;2.00;;;1.90;;
65879;SDS011;52661;51.364;6.054;2024-01-15T03:01:42;3.40;;;2.22;;
65879;SDS011;52661;51.364;6.054;2024-01-15T03:04:07;4.13;;;2.03;;
65879;SDS011;52661;51.364;6.054;2024-01-15T03:06:33;1.63;;;0.95;;
65879;SDS011;52661;51.364;6.054;2024-01-15T03:08:58;3.03;;;1.23;;
65879;SDS011;52661;51.364;6.054;2024-01-15T03:11:23;1.43;;;0.93;;
65879;SDS011;52661;51.364;6.054;2024-01-15T03:13:49;2.28;;;1.40;;
65879;SDS011;52661;51.364;6.054;2024-01-15T03:16:14;1.40;;;0.85;;
65879;SDS011;52661;51.364;6.054;2024-01-15T03:18:39;3.38;;;3.08;;
65879;SDS011;52661;51.364;6.054;2024-01-15T03:21:05;1.47;;;0.93;;
65879;SDS011;52661;51.364;6.054;2024-01-15T03:23:31;1.92;;;1.65;;
65879;SDS011;52661;51.364;6.054;2024-01-15T03:25:56;2.40;;;1.20;;
65879;SDS011;52661;51.364;6.054;2024-01-15T03:28:21;1.40;;;0.77;;
65879;SDS011;52661;51.364;6.054;2024-01-15T03:30:47;1.73;;;1.53;;
65879;SDS011;52661;51.364;6.054;2024-01-15T03:33:12;2.37;;;1.80;;
65879;SDS011;52661;51.364;6.054;2024-01-15T03:35:37;1.55;;;1.20;;
65879;SDS011;52661;51.364;6.054;2024-01-15T03:38:02;2.40;;;1.77;;
65879;SDS011;52661;51.364;6.054;2024-01-15T03:40:28;2.50;;;1.98;;
65879;SDS011;52661;51.364;6.054;2024-01-15T03:42:53;2.50;;;1.40;;
65879;SDS011;52661;51.364;6.054;2024-01-15T03:45:19;4.78;;;1.23;;
65879;SDS011;52661;51.364;6.054;2024-01-15T03:47:44;2.17;;;1.40;;
65879;SDS011;52661;51.364;6.054;2024-01-15T03:50:10;3.05;;;1.38;;
65879;SDS011;52661;51.364;6.054;2024-01-15T03:52:35;4.25;;;1.33;;
65879;SDS011;52661;51.364;6.054;2024-01-15T03:55:00;2.87;;;1.83;;
65879;SDS011;52661;51.364;6.054;2024-01-15T03:57:26;5.30;;;1.73;;
65879;SDS011;52661;51.364;6.054;2024-01-15T03:59:51;1.95;;;0.90;;
65879;SDS011;52661;51.364;6.054;2024-01-15T04:02:17;11.57;;;2.00;;
65879;SDS011;52661;51.364;6.054;2024-01-15T04:04:43;2.03;;;1.30;;
65879;SDS011;52661;51.364;6.054;2024-01-15T04:07:09;1.65;;;1.50;;
65879;SDS011;52661;51.364;6.054;2024-01-15T04:09:35;2.60;;;1.55;;
65879;SDS011;52661;51.364;6.054;2024-01-15T04:12:00;3.83;;;2.13;;
65879;SDS011;52661;51.364;6.054;2024-01-15T04:14:25;1.30;;;0.50;;
65879;SDS011;52661;51.364;6.054;2024-01-15T04:16:51;3.33;;;1.38;;
65879;SDS011;52661;51.364;6.054;2024-01-15T04:19:16;1.30;;;0.93;;
65879;SDS011;52661;51.364;6.054;2024-01-15T04:21:41;3.53;;;1.67;;
65879;SDS011;52661;51.364;6.054;2024-01-15T04:24:07;3.00;;;1.63;;
65879;SDS011;52661;51.364;6.054;2024-01-15T04:26:32;5.23;;;0.93;;
65879;SDS011;52661;51.364;6.054;2024-01-15T04:28:57;1.65;;;1.35;;
65879;SDS011;52661;51.364;6.054;2024-01-15T04:31:24;2.08;;;1.00;;
65879;SDS011;52661;51.364;6.054;2024-01-15T04:33:51;2.25;;;1.30;;
65879;SDS011;52661;51.364;6.054;2024-01-15T04:36:17;1.88;;;1.45;;
65879;SDS011;52661;51.364;6.054;2024-01-15T04:38:42;1.57;;;1.23;;
65879;SDS011;52661;51.364;6.054;2024-01-15T04:41:10;1.30;;;0.40;;
65879;SDS011;52661;51.364;6.054;2024-01-15T04:43:37;3.67;;;0.82;;
65879;SDS011;52661;51.364;6.054;2024-01-15T04:46:02;1.40;;;0.87;;
65879;SDS011;52661;51.364;6.054;2024-01-15T04:48:28;1.25;;;0.82;;
65879;SDS011;52661;51.364;6.054;2024-01-15T04:50:53;0.87;;;0.73;;
65879;SDS011;52661;51.364;6.054;2024-01-15T04:53:18;2.03;;;1.57;;
65879;SDS011;52661;51.364;6.054;2024-01-15T04:55:44;2.57;;;1.20;;
65879;SDS011;52661;51.364;6.054;2024-01-15T04:58:09;2.50;;;0.40;;
65879;SDS011;52661;51.364;6.054;2024-01-15T05:00:34;2.37;;;1.00;;
65879;SDS011;52661;51.364;6.054;2024-01-15T05:02:59;0.53;;;0.43;;
65879;SDS011;52661;51.364;6.054;2024-01-15T05:05:25;1.40;;;1.10;;
65879;SDS011;52661;51.364;6.054;2024-01-15T05:07:50;0.52;;;0.52;;
65879;SDS011;52661;51.364;6.054;2024-01-15T05:10:16;0.80;;;0.70;;
65879;SDS011;52661;51.364;6.054;2024-01-15T05:12:41;1.45;;;1.02;;
65879;SDS011;52661;51.364;6.054;2024-01-15T05:15:07;1.65;;;1.10;;
65879;SDS011;52661;51.364;6.054;2024-01-15T05:17:32;0.55;;;0.40;;
65879;SDS011;52661;51.364;6.054;2024-01-15T05:19:57;1.17;;;0.70;;
65879;SDS011;52661;51.364;6.054;2024-01-15T05:22:23;2.08;;;0.75;;
65879;SDS011;52661;51.364;6.054;2024-01-15T05:24:50;2.95;;;1.02;;
65879;SDS011;52661;51.364;6.054;2024-01-15T05:27:15;3.70;;;0.77;;
65879;SDS011;52661;51.364;6.054;2024-01-15T05:29:41;0.90;;;0.63;;
65879;SDS011;52661;51.364;6.054;2024-01-15T05:32:06;1.13;;;0.30;;
65879;SDS011;52661;51.364;6.054;2024-01-15T05:34:31;2.50;;;0.45;;
65879;SDS011;52661;51.364;6.054;2024-01-15T05:36:57;0.50;;;0.37;;
65879;SDS011;52661;51.364;6.054;2024-01-15T05:39:22;1.73;;;0.67;;
65879;SDS011;52661;51.364;6.054;2024-01-15T05:41:47;0.63;;;0.50;;
65879;SDS011;52661;51.364;6.054;2024-01-15T05:44:12;0.50;;;0.47;;
65879;SDS011;52661;51.364;6.054;2024-01-15T05:46:38;0.43;;;0.10;;
65879;SDS011;52661;51.364;6.054;2024-01-15T05:49:03;1.47;;;1.23;;
65879;SDS011;52661;51.364;6.054;2024-01-15T05:51:29;0.88;;;0.60;;
65879;SDS011;52661;51.364;6.054;2024-01-15T05:53:54;0.50;;;0.47;;
65879;SDS011;52661;51.364;6.054;2024-01-15T05:56:19;0.22;;;0.20;;
65879;SDS011;52661;51.364;6.054;2024-01-15T05:58:45;1.13;;;0.60;;
65879;SDS011;52661;51.364;6.054;2024-01-15T06:01:10;1.33;;;1.23;;
65879;SDS011;52661;51.364;6.054;2024-01-15T06:03:35;0.10;;;0.10;;
65879;SDS011;52661;51.364;6.054;2024-01-15T06:06:00;0.73;;;0.70;;
65879;SDS011;52661;51.364;6.054;2024-01-15T06:08:26;0.73;;;0.20;;
65879;SDS011;52661;51.364;6.054;2024-01-15T06:10:52;2.03;;;0.52;;
65879;SDS011;52661;51.364;6.054;2024-01-15T06:13:18;1.30;;;0.82;;
65879;SDS011;52661;51.364;6.054;2024-01-15T06:15:43;0.90;;;0.80;;
65879;SDS011;52661;51.364;6.054;2024-01-15T06:18:08;7.90;;;1.37;;
65879;SDS011;52661;51.364;6.054;2024-01-15T06:20:34;1.50;;;0.47;;
65879;SDS011;52661;51.364;6.054;2024-01-15T06:23:00;1.20;;;0.40;;
65879;SDS011;52661;51.364;6.054;2024-01-15T06:25:25;1.93;;;0.83;;
65879;SDS011;52661;51.364;6.054;2024-01-15T06:27:50;1.83;;;0.83;;
65879;SDS011;52661;51.364;6.054;2024-01-15T06:30:16;1.00;;;0.77;;
65879;SDS011;52661;51.364;6.054;2024-01-15T06:32:41;1.85;;;1.15;;
65879;SDS011;52661;51.364;6.054;2024-01-15T06:35:07;1.50;;;0.98;;
65879;SDS011;52661;51.364;6.054;2024-01-15T06:37:32;2.35;;;1.48;;
65879;SDS011;52661;51.364;6.054;2024-01-15T06:39:57;3.22;;;1.83;;
65879;SDS011;52661;51.364;6.054;2024-01-15T06:42:23;4.20;;;2.20;;
65879;SDS011;52661;51.364;6.054;2024-01-15T06:44:48;5.30;;;3.00;;
65879;SDS011;52661;51.364;6.054;2024-01-15T06:47:14;1.10;;;1.00;;
65879;SDS011;52661;51.364;6.054;2024-01-15T06:49:39;3.40;;;2.20;;
65879;SDS011;52661;51.364;6.054;2024-01-15T06:52:05;1.52;;;1.08;;
65879;SDS011;52661;51.364;6.054;2024-01-15T06:54:31;2.25;;;1.83;;
65879;SDS011;52661;51.364;6.054;2024-01-15T06:56:56;3.95;;;1.25;;
65879;SDS011;52661;51.364;6.054;2024-01-15T06:59:22;5.57;;;1.75;;
65879;SDS011;52661;51.364;6.054;2024-01-15T07:01:47;1.87;;;1.47;;
65879;SDS011;52661;51.364;6.054;2024-01-15T07:04:12;2.20;;;1.50;;
65879;SDS011;52661;51.364;6.054;2024-01-15T07:06:38;0.82;;;0.68;;
65879;SDS011;52661;51.364;6.054;2024-01-15T07:09:03;2.97;;;1.55;;
65879;SDS011;52661;51.364;6.054;2024-01-15T07:11:29;3.88;;;1.63;;
65879;SDS011;52661;51.364;6.054;2024-01-15T07:13:54;5.13;;;0.97;;
65879;SDS011;52661;51.364;6.054;2024-01-15T07:16:19;2.20;;;1.43;;
65879;SDS011;52661;51.364;6.054;2024-01-15T07:18:45;3.47;;;1.55;;
65879;SDS011;52661;51.364;6.054;2024-01-15T07:21:10;1.63;;;1.00;;
65879;SDS011;52661;51.364;6.054;2024-01-15T07:23:35;2.17;;;1.30;;
65879;SDS011;52661;51.364;6.054;2024-01-15T07:26:01;4.93;;;2.25;;
65879;SDS011;52661;51.364;6.054;2024-01-15T07:28:30;0.80;;;0.80;;
65879;SDS011;52661;51.364;6.054;2024-01-15T07:30:55;0.65;;;0.50;;
65879;SDS011;52661;51.364;6.054;2024-01-15T07:33:21;1.10;;;0.93;;
65879;SDS011;52661;51.364;6.054;2024-01-15T07:35:46;1.77;;;1.23;;
65879;SDS011;52661;51.364;6.054;2024-01-15T07:38:11;1.00;;;0.67;;
65879;SDS011;52661;51.364;6.054;2024-01-15T07:40:37;0.87;;;0.30;;
65879;SDS011;52661;51.364;6.054;2024-01-15T07:43:02;0.73;;;0.55;;
65879;SDS011;52661;51.364;6.054;2024-01-15T07:45:28;0.80;;;0.68;;
65879;SDS011;52661;51.364;6.054;2024-01-15T07:47:53;1.02;;;0.40;;
65879;SDS011;52661;51.364;6.054;2024-01-15T07:50:18;2.83;;;0.23;;
65879;SDS011;52661;51.364;6.054;2024-01-15T07:52:44;1.35;;;0.98;;
65879;SDS011;52661;51.364;6.054;2024-01-15T07:55:10;0.40;;;0.10;;
65879;SDS011;52661;51.364;6.054;2024-01-15T07:57:35;1.48;;;1.08;;
65879;SDS011;52661;51.364;6.054;2024-01-15T08:00:01;1.42;;;0.85;;
65879;SDS011;52661;51.364;6.054;2024-01-15T08:02:29;0.95;;;0.73;;
65879;SDS011;52661;51.364;6.054;2024-01-15T08:04:54;1.13;;;0.80;;
65879;SDS011;52661;51.364;6.054;2024-01-15T08:07:19;2.47;;;1.50;;
65879;SDS011;52661;51.364;6.054;2024-01-15T08:09:45;0.80;;;0.80;;
65879;SDS011;52661;51.364;6.054;2024-01-15T08:12:12;2.33;;;1.27;;
65879;SDS011;52661;51.364;6.054;2024-01-15T08:14:38;0.55;;;0.43;;
65879;SDS011;52661;51.364;6.054;2024-01-15T08:17:03;1.53;;;1.10;;
65879;SDS011;52661;51.364;6.054;2024-01-15T08:19:29;0.77;;;0.30;;
65879;SDS011;52661;51.364;6.054;2024-01-15T08:21:54;0.88;;;0.65;;
65879;SDS011;52661;51.364;6.054;2024-01-15T08:24:20;0.77;;;0.73;;
65879;SDS011;52661;51.364;6.054;2024-01-15T08:26:45;0.80;;;0.75;;
65879;SDS011;52661;51.364;6.054;2024-01-15T08:29:10;1.10;;;0.60;;
65879;SDS011;52661;51.364;6.054;2024-01-15T08:31:36;1.48;;;0.70;;
65879;SDS011;52661;51.364;6.054;2024-01-15T08:34:01;1.80;;;0.90;;
65879;SDS011;52661;51.364;6.054;2024-01-15T08:36:27;0.35;;;0.20;;
65879;SDS011;52661;51.364;6.054;2024-01-15T08:38:54;1.42;;;0.82;;
65879;SDS011;52661;51.364;6.054;2024-01-15T08:41:20;1.30;;;1.05;;
65879;SDS011;52661;51.364;6.054;2024-01-15T08:43:45;1.00;;;0.57;;
65879;SDS011;52661;51.364;6.054;2024-01-15T08:46:10;1.77;;;1.15;;
65879;SDS011;52661;51.364;6.054;2024-01-15T08:48:36;1.85;;;1.23;;
65879;SDS011;52661;51.364;6.054;2024-01-15T08:51:01;2.28;;;0.50;;
65879;SDS011;52661;51.364;6.054;2024-01-15T08:53:27;1.05;;;0.90;;
65879;SDS011;52661;51.364;6.054;2024-01-15T08:55:53;1.95;;;1.05;;
65879;SDS011;52661;51.364;6.054;2024-01-15T08:58:18;1.38;;;0.82;;
65879;SDS011;52661;51.364;6.054;2024-01-15T09:00:43;2.13;;;1.15;;
65879;SDS011;52661;51.364;6.054;2024-01-15T09:03:09;1.77;;;1.02;;
65879;SDS011;52661;51.364;6.054;2024-01-15T09:05:34;1.73;;;0.93;;
65879;SDS011;52661;51.364;6.054;2024-01-15T09:08:00;1.45;;;0.98;;
65879;SDS011;52661;51.364;6.054;2024-01-15T09:10:25;1.00;;;0.68;;
65879;SDS011;52661;51.364;6.054;2024-01-15T09:12:51;1.60;;;0.83;;
65879;SDS011;52661;51.364;6.054;2024-01-15T09:15:16;1.80;;;1.00;;
65879;SDS011;52661;51.364;6.054;2024-01-15T09:17:41;1.15;;;1.05;;
65879;SDS011;52661;51.364;6.054;2024-01-15T09:20:08;1.27;;;0.30;;
65879;SDS011;52661;51.364;6.054;2024-01-15T09:22:34;1.00;;;0.50;;
65879;SDS011;52661;51.364;6.054;2024-01-15T09:24:59;1.00;;;0.45;;
65879;SDS011;52661;51.364;6.054;2024-01-15T09:27:25;8.02;;;0.60;;
65879;SDS011;52661;51.364;6.054;2024-01-15T09:29:53;1.67;;;1.38;;
65879;SDS011;52661;51.364;6.054;2024-01-15T09:32:18;1.42;;;0.98;;
65879;SDS011;52661;51.364;6.054;2024-01-15T09:34:45;1.10;;;1.00;;
65879;SDS011;52661;51.364;6.054;2024-01-15T09:37:11;1.30;;;1.17;;
65879;SDS011;52661;51.364;6.054;2024-01-15T09:39:36;3.55;;;1.08;;
65879;SDS011;52661;51.364;6.054;2024-01-15T09:42:02;1.57;;;1.40;;
65879;SDS011;52661;51.364;6.054;2024-01-15T09:44:27;2.45;;;1.13;;
65879;SDS011;52661;51.364;6.054;2024-01-15T09:46:54;0.73;;;0.70;;
65879;SDS011;52661;51.364;6.054;2024-01-15T09:49:20;1.58;;;0.52;;
65879;SDS011;52661;51.364;6.054;2024-01-15T09:51:46;3.13;;;0.77;;
65879;SDS011;52661;51.364;6.054;2024-01-15T09:54:12;2.20;;;0.75;;
65879;SDS011;52661;51.364;6.054;2024-01-15T09:56:38;0.80;;;0.43;;
65879;SDS011;52661;51.364;6.054;2024-01-15T09:59:04;1.10;;;0.85;;
65879;SDS011;52661;51.364;6.054;2024-01-15T10:01:31;1.45;;;0.80;;
65879;SDS011;52661;51.364;6.054;2024-01-15T10:03:57;0.95;;;0.80;;
65879;SDS011;52661;51.364;6.054;2024-01-15T10:06:23;0.88;;;0.80;;
65879;SDS011;52661;51.364;6.054;2024-01-15T10:08:52;0.65;;;0.65;;
65879;SDS011;52661;51.364;6.054;2024-01-15T10:11:19;1.65;;;1.55;;
65879;SDS011;52661;51.364;6.054;2024-01-15T10:13:44;1.38;;;1.10;;
65879;SDS011;52661;51.364;6.054;2024-01-15T10:16:11;0.77;;;0.77;;
65879;SDS011;52661;51.364;6.054;2024-01-15T10:18:36;0.60;;;0.57;;
65879;SDS011;52661;51.364;6.054;2024-01-15T10:21:02;1.92;;;1.80;;
65879;SDS011;52661;51.364;6.054;2024-01-15T10:23:29;0.60;;;0.20;;
65879;SDS011;52661;51.364;6.054;2024-01-15T10:25:56;4.13;;;0.70;;
65879;SDS011;52661;51.364;6.054;2024-01-15T10:28:22;0.68;;;0.68;;
65879;SDS011;52661;51.364;6.054;2024-01-15T10:30:49;0.10;;;0.00;;
65879;SDS011;52661;51.364;6.054;2024-01-15T10:33:19;0.68;;;0.68;;
65879;SDS011;52661;51.364;6.054;2024-01-15T10:35:47;2.25;;;0.57;;
65879;SDS011;52661;51.364;6.054;2024-01-15T10:38:12;0.20;;;0.17;;
65879;SDS011;52661;51.364;6.054;2024-01-15T10:40:37;0.55;;;0.10;;
65879;SDS011;52661;51.364;6.054;2024-01-15T10:43:03;0.87;;;0.50;;
65879;SDS011;52661;51.364;6.054;2024-01-15T10:45:30;0.47;;;0.47;;
65879;SDS011;52661;51.364;6.054;2024-01-15T10:47:55;0.83;;;0.80;;
65879;SDS011;52661;51.364;6.054;2024-01-15T10:50:23;0.82;;;0.73;;
65879;SDS011;52661;51.364;6.054;2024-01-15T10:52:49;0.60;;;0.52;;
65879;SDS011;52661;51.364;6.054;2024-01-15T10:55:16;0.77;;;0.77;;
65879;SDS011;52661;51.364;6.054;2024-01-15T10:57:43;1.15;;;0.75;;
65879;SDS011;52661;51.364;6.054;2024-01-15T11:00:10;0.38;;;0.08;;
65879;SDS011;52661;51.364;6.054;2024-01-15T11:02:39;0.32;;;0.13;;
65879;SDS011;52661;51.364;6.054;2024-01-15T11:05:05;0.50;;;0.15;;
65879;SDS011;52661;51.364;6.054;2024-01-15T11:07:31;0.68;;;0.30;;
65879;SDS011;52661;51.364;6.054;2024-01-15T11:09:56;0.68;;;0.50;;
65879;SDS011;52661;51.364;6.054;2024-01-15T11:12:25;0.98;;;0.70;;
65879;SDS011;52661;51.364;6.054;2024-01-15T11:14:51;0.20;;;0.10;;
65879;SDS011;52661;51.364;6.054;2024-01-15T11:17:17;0.52;;;0.15;;
65879;SDS011;52661;51.364;6.054;2024-01-15T11:19:47;0.20;;;0.20;;
65879;SDS011;52661;51.364;6.054;2024-01-15T11:24:55;1.80;;;0.50;;
65879;SDS011;52661;51.364;6.054;2024-01-15T11:27:39;1.52;;;0.60;;
65879;SDS011;52661;51.364;6.054;2024-01-15T11:30:04;1.38;;;0.90;;
65879;SDS011;52661;51.364;6.054;2024-01-15T11:32:34;1.83;;;1.33;;
65879;SDS011;52661;51.364;6.054;2024-01-15T11:35:01;2.33;;;1.02;;
65879;SDS011;52661;51.364;6.054;2024-01-15T11:37:28;1.20;;;0.55;;
65879;SDS011;52661;51.364;6.054;2024-01-15T11:39:56;0.85;;;0.22;;
65879;SDS011;52661;51.364;6.054;2024-01-15T11:42:28;1.08;;;0.65;;
65879;SDS011;52661;51.364;6.054;2024-01-15T11:44:54;2.63;;;1.45;;
65879;SDS011;52661;51.364;6.054;2024-01-15T11:47:36;1.47;;;1.37;;
65879;SDS011;52661;51.364;6.054;2024-01-15T11:50:11;2.13;;;1.52;;
65879;SDS011;52661;51.364;6.054;2024-01-15T11:52:37;1.00;;;0.40;;
65879;SDS011;52661;51.364;6.054;2024-01-15T12:00:08;1.85;;;0.65;;
65879;SDS011;52661;51.364;6.054;2024-01-15T12:02:35;0.82;;;0.70;;
65879;SDS011;52661;51.364;6.054;2024-01-15T12:05:00;1.67;;;1.23;;
65879;SDS011;52661;51.364;6.054;2024-01-15T12:07:26;2.20;;;0.80;;
65879;SDS011;52661;51.364;6.054;2024-01-15T12:09:51;1.93;;;1.23;;
65879;SDS011;52661;51.364;6.054;2024-01-15T12:12:21;2.37;;;1.50;;
65879;SDS011;52661;51.364;6.054;2024-01-15T12:14:53;3.13;;;1.10;;
65879;SDS011;52661;51.364;6.054;2024-01-15T12:17:18;2.05;;;1.63;;
65879;SDS011;52661;51.364;6.054;2024-01-15T12:19:44;1.63;;;1.10;;
65879;SDS011;52661;51.364;6.054;2024-01-15T12:22:09;1.92;;;1.17;;
65879;SDS011;52661;51.364;6.054;2024-01-15T12:24:35;1.30;;;0.60;;
65879;SDS011;52661;51.364;6.054;2024-01-15T12:27:00;1.25;;;1.15;;
65879;SDS011;52661;51.364;6.054;2024-01-15T12:29:26;1.45;;;0.93;;
65879;SDS011;52661;51.364;6.054;2024-01-15T12:31:52;1.40;;;0.90;;
65879;SDS011;52661;51.364;6.054;2024-01-15T12:34:28;2.70;;;0.68;;
65879;SDS011;52661;51.364;6.054;2024-01-15T12:36:56;1.42;;;0.32;;
65879;SDS011;52661;51.364;6.054;2024-01-15T12:39:22;1.08;;;0.63;;
65879;SDS011;52661;51.364;6.054;2024-01-15T12:41:47;1.20;;;0.60;;
65879;SDS011;52661;51.364;6.054;2024-01-15T12:44:13;0.55;;;0.30;;
65879;SDS011;52661;51.364;6.054;2024-01-15T12:46:38;0.60;;;0.20;;
65879;SDS011;52661;51.364;6.054;2024-01-15T12:49:04;0.90;;;0.77;;
65879;SDS011;52661;51.364;6.054;2024-01-15T12:51:29;0.77;;;0.77;;
65879;SDS011;52661;51.364;6.054;2024-01-15T12:53:55;0.20;;;0.10;;
65879;SDS011;52661;51.364;6.054;2024-01-15T12:56:20;0.43;;;0.37;;
65879;SDS011;52661;51.364;6.054;2024-01-15T12:58:45;0.67;;;0.63;;
65879;SDS011;52661;51.364;6.054;2024-01-15T13:01:11;0.50;;;0.20;;
65879;SDS011;52661;51.364;6.054;2024-01-15T13:03:36;0.22;;;0.20;;
65879;SDS011;52661;51.364;6.054;2024-01-15T13:06:02;0.68;;;0.55;;
65879;SDS011;52661;51.364;6.054;2024-01-15T13:08:27;1.88;;;0.70;;
65879;SDS011;52661;51.364;6.054;2024-01-15T13:10:54;0.20;;;0.10;;
65879;SDS011;52661;51.364;6.054;2024-01-15T13:13:22;0.80;;;0.75;;
65879;SDS011;52661;51.364;6.054;2024-01-15T13:15:47;1.00;;;0.77;;
65879;SDS011;52661;51.364;6.054;2024-01-15T13:18:12;1.60;;;1.00;;
65879;SDS011;52661;51.364;6.054;2024-01-15T13:20:37;3.40;;;0.30;;
65879;SDS011;52661;51.364;6.054;2024-01-15T13:23:03;4.60;;;0.20;;
65879;SDS011;52661;51.364;6.054;2024-01-15T13:25:29;1.00;;;0.52;;
65879;SDS011;52661;51.364;6.054;2024-01-15T13:27:54;0.77;;;0.70;;
65879;SDS011;52661;51.364;6.054;2024-01-15T13:30:19;1.37;;;0.83;;
65879;SDS011;52661;51.364;6.054;2024-01-15T13:32:45;0.70;;;0.67;;
65879;SDS011;52661;51.364;6.054;2024-01-15T13:35:10;1.00;;;0.40;;
65879;SDS011;52661;51.364;6.054;2024-01-15T13:37:38;0.90;;;0.60;;
65879;SDS011;52661;51.364;6.054;2024-01-15T13:40:05;0.98;;;0.98;;
65879;SDS011;52661;51.364;6.054;2024-01-15T13:42:32;0.73;;;0.68;;
65879;SDS011;52661;51.364;6.054;2024-01-15T13:44:58;0.70;;;0.10;;
65879;SDS011;52661;51.364;6.054;2024-01-15T13:47:23;0.73;;;0.67;;
65879;SDS011;52661;51.364;6.054;2024-01-15T13:49:49;0.88;;;0.38;;
65879;SDS011;52661;51.364;6.054;2024-01-15T13:52:14;0.68;;;0.15;;
65879;SDS011;52661;51.364;6.054;2024-01-15T13:54:39;1.00;;;0.57;;
65879;SDS011;52661;51.364;6.054;2024-01-15T13:57:05;0.40;;;0.10;;
65879;SDS011;52661;51.364;6.054;2024-01-15T13:59:31;1.10;;;0.82;;
65879;SDS011;52661;51.364;6.054;2024-01-15T14:01:57;0.10;;;0.10;;
65879;SDS011;52661;51.364;6.054;2024-01-15T14:04:22;0.90;;;0.60;;
65879;SDS011;52661;51.364;6.054;2024-01-15T14:06:48;0.60;;;0.30;;
65879;SDS011;52661;51.364;6.054;2024-01-15T14:09:13;2.30;;;1.00;;
65879;SDS011;52661;51.364;6.054;2024-01-15T14:11:39;0.32;;;0.10;;
65879;SDS011;52661;51.364;6.054;2024-01-15T14:14:05;0.82;;;0.68;;
65879;SDS011;52661;51.364;6.054;2024-01-15T14:16:30;0.77;;;0.47;;
65879;SDS011;52661;51.364;6.054;2024-01-15T14:18:55;0.90;;;0.60;;
65879;SDS011;52661;51.364;6.054;2024-01-15T14:21:21;0.50;;;0.33;;
65879;SDS011;52661;51.364;6.054;2024-01-15T14:23:46;0.90;;;0.90;;
65879;SDS011;52661;51.364;6.054;2024-01-15T14:26:11;0.77;;;0.77;;
65879;SDS011;52661;51.364;6.054;2024-01-15T14:28:37;0.80;;;0.50;;
65879;SDS011;52661;51.364;6.054;2024-01-15T14:31:02;0.60;;;0.57;;
65879;SDS011;52661;51.364;6.054;2024-01-15T14:33:27;0.70;;;0.57;;
65879;SDS011;52661;51.364;6.054;2024-01-15T14:35:53;1.00;;;1.00;;
65879;SDS011;52661;51.364;6.054;2024-01-15T14:38:18;1.15;;;1.05;;
65879;SDS011;52661;51.364;6.054;2024-01-15T14:40:44;0.65;;;0.65;;
65879;SDS011;52661;51.364;6.054;2024-01-15T14:43:09;0.73;;;0.73;;
65879;SDS011;52661;51.364;6.054;2024-01-15T14:45:35;2.08;;;0.82;;
65879;SDS011;52661;51.364;6.054;2024-01-15T14:48:00;0.47;;;0.40;;